Terminal Aerodrome Forecast
Issued by NWS

Home | Current Version | Previous Version | Text Only | Print | Product List | Glossary On
Versions: 1 2 3 4 5 6 7 8 9 10 11 12 13 14 15 16
000
FTUS43 KEAX 201400 AAB
TAFSTJ
TAF AMD
KSTJ 201454Z 2015/2112 18006KT P6SM SCT020
     FM202000 18006KT P6SM SCT025 OVC250
     FM210700 18005KT 4SM BR OVC250=

USA.gov is the U.S. government's official web portal to all federal, state and local government web resources and services.